Terminal Aerodrome Forecast
Issued by NWS

Home | Current Version | Previous Version | Text Only | Print | Product List | Glossary On
Versions: 1 2 3 4 5 6 7 8 9 10 11 12 13
000
FTAK31 PAJN 280500
TAFAWG
TAF
PAWG 280521Z 2806/2906 30005KT P6SM BKN050 BKN070
     FM281200 VRB04KT P6SM VCSH BKN030 OVC070
     FM281700 30007KT P6SM SCT035 BKN070
     FM290400 30003KT P6SM SCT035 SCT070
      AMD LTD TO CLD VIS AND WIND 2806/2815=

USA.gov is the U.S. government's official web portal to all federal, state and local government web resources and services.